createdAt,value
2022-12-03T00:00:33.358Z,74.15
2022-12-03T00:02:59.987Z,73.99
2022-12-03T00:05:26.544Z,73.90
2022-12-03T00:07:53.128Z,73.64
2022-12-03T00:10:19.850Z,73.86
2022-12-03T00:12:47.222Z,73.91
2022-12-03T00:15:13.639Z,73.73
2022-12-03T00:17:40.360Z,73.73
2022-12-03T00:20:18.222Z,73.80
2022-12-03T00:22:44.835Z,73.65
2022-12-03T00:25:11.281Z,73.79
2022-12-03T00:27:37.871Z,73.67
2022-12-03T00:30:05.115Z,73.50
2022-12-03T00:32:31.536Z,73.57
2022-12-03T00:34:58.078Z,73.58
2022-12-03T00:37:24.538Z,73.94
2022-12-03T00:39:50.953Z,74.21
2022-12-03T00:42:17.333Z,73.90
2022-12-03T00:44:43.799Z,74.16
2022-12-03T00:47:10.668Z,74.12
2022-12-03T00:49:37.136Z,74.15
2022-12-03T00:52:03.816Z,74.05
2022-12-03T00:54:32.338Z,74.33
2022-12-03T00:56:58.903Z,74.25
2022-12-03T00:59:25.455Z,74.51
2022-12-03T01:01:52.036Z,74.59
2022-12-03T01:04:18.617Z,74.55
2022-12-03T01:06:45.090Z,74.78
2022-12-03T01:09:11.517Z,74.67
2022-12-03T01:11:38.022Z,74.69
2022-12-03T01:14:06.519Z,74.44
2022-12-03T01:16:33.430Z,74.21
2022-12-03T01:18:59.957Z,74.25
2022-12-03T01:21:26.410Z,74.11
2022-12-03T01:23:52.916Z,73.93
2022-12-03T01:26:19.601Z,73.74
2022-12-03T01:28:46.077Z,73.77
2022-12-03T01:31:31.232Z,73.69
2022-12-03T01:33:57.780Z,73.62
2022-12-03T01:36:24.218Z,73.54
2022-12-03T01:38:50.720Z,73.41
2022-12-03T01:41:18.557Z,73.35
2022-12-03T01:43:46.005Z,73.46
2022-12-03T01:46:14.731Z,73.32
2022-12-03T01:48:41.316Z,73.20
2022-12-03T01:51:08.188Z,72.85
2022-12-03T01:53:34.695Z,72.83
2022-12-03T01:56:01.184Z,72.97
2022-12-03T01:58:29.468Z,72.95
2022-12-03T02:01:01.482Z,72.64
2022-12-03T02:03:28.482Z,72.48
2022-12-03T02:05:56.797Z,72.18
2022-12-03T02:08:32.268Z,72.38
2022-12-03T02:11:02.901Z,72.24
2022-12-03T02:13:29.480Z,72.48
2022-12-03T02:15:56.310Z,71.83
2022-12-03T02:18:23.017Z,72.09
2022-12-03T02:21:21.821Z,72.74
2022-12-03T02:24:18.318Z,72.61
2022-12-03T02:26:44.911Z,72.10
2022-12-03T02:29:11.494Z,71.88
2022-12-03T02:31:38.191Z,71.74
2022-12-03T02:34:08.647Z,71.86
2022-12-03T02:36:36.136Z,71.62
2022-12-03T02:39:05.017Z,71.30
2022-12-03T02:41:50.176Z,71.41
2022-12-03T02:44:16.840Z,71.54
2022-12-03T02:46:43.308Z,71.64
2022-12-03T02:49:10.162Z,71.52
2022-12-03T02:51:36.575Z,71.64
2022-12-03T02:54:03.643Z,71.72
2022-12-03T02:56:32.427Z,71.63
2022-12-03T02:59:02.080Z,71.77
2022-12-03T03:01:28.728Z,71.97
2022-12-03T03:03:55.921Z,72.02
2022-12-03T03:06:22.450Z,72.02
2022-12-03T03:08:49.173Z,71.76
2022-12-03T03:11:15.714Z,72.08
2022-12-03T03:13:42.570Z,72.31
2022-12-03T03:16:09.422Z,72.29
2022-12-03T03:18:36.903Z,72.34
2022-12-03T03:21:04.362Z,72.46
2022-12-03T03:23:31.178Z,72.27
2022-12-03T03:26:01.599Z,72.75
2022-12-03T03:28:29.951Z,72.83
2022-12-03T03:30:58.300Z,72.65
2022-12-03T03:33:27.809Z,72.67
2022-12-03T03:35:54.558Z,72.69
2022-12-03T03:38:23.655Z,72.80
2022-12-03T03:40:51.911Z,72.69
2022-12-03T03:43:20.171Z,72.60
2022-12-03T03:45:46.966Z,72.77
2022-12-03T03:48:14.031Z,72.56
2022-12-03T03:50:41.985Z,73.01
2022-12-03T03:53:08.745Z,72.93
2022-12-03T03:55:35.374Z,72.96
2022-12-03T03:58:02.051Z,72.94
2022-12-03T04:00:29.507Z,72.84
2022-12-03T04:02:56.343Z,72.87
2022-12-03T04:05:24.836Z,73.13
2022-12-03T04:07:51.551Z,72.96
2022-12-03T04:10:36.725Z,73.21
2022-12-03T04:13:03.838Z,73.41
2022-12-03T04:15:30.514Z,73.30
2022-12-03T04:18:15.435Z,73.36
2022-12-03T04:20:42.000Z,73.49
2022-12-03T04:23:08.738Z,73.68
2022-12-03T04:25:53.784Z,73.36
2022-12-03T04:28:39.288Z,73.50
2022-12-03T04:31:26.537Z,73.17
2022-12-03T04:34:12.481Z,73.49
2022-12-03T04:36:41.315Z,73.25
2022-12-03T04:39:07.818Z,73.40
2022-12-03T04:41:34.309Z,73.26
2022-12-03T04:44:19.279Z,73.06
2022-12-03T04:46:46.488Z,73.50
2022-12-03T04:49:12.996Z,73.34
2022-12-03T04:51:39.535Z,73.61
2022-12-03T04:54:06.152Z,73.30
2022-12-03T04:56:32.757Z,73.14
2022-12-03T04:58:59.318Z,73.15
2022-12-03T05:01:25.859Z,73.58
2022-12-03T05:03:52.384Z,73.20
2022-12-03T05:06:18.870Z,73.38
2022-12-03T05:08:45.335Z,73.19
2022-12-03T05:11:11.900Z,73.31
2022-12-03T05:13:38.349Z,72.70
2022-12-03T05:16:04.960Z,72.66
2022-12-03T05:18:31.389Z,72.47
2022-12-03T05:20:58.248Z,72.51
2022-12-03T05:23:24.772Z,72.27
2022-12-03T05:25:51.600Z,72.53
2022-12-03T05:28:18.258Z,72.17
2022-12-03T05:30:44.921Z,72.29
2022-12-03T05:33:11.581Z,72.14
2022-12-03T05:35:38.106Z,72.31
2022-12-03T05:38:04.580Z,72.50
2022-12-03T05:40:31.196Z,72.03
2022-12-03T05:42:57.874Z,72.37
2022-12-03T05:45:26.647Z,72.23
2022-12-03T05:47:54.694Z,72.03
2022-12-03T05:50:23.076Z,72.23
2022-12-03T05:52:50.031Z,72.31
2022-12-03T05:55:17.082Z,72.29
2022-12-03T05:57:43.998Z,71.70
2022-12-03T06:00:25.184Z,72.47
2022-12-03T06:02:52.342Z,71.85
2022-12-03T06:05:19.877Z,71.91
2022-12-03T06:07:47.967Z,72.28
2022-12-03T06:10:17.737Z,72.11
2022-12-03T06:12:44.161Z,71.78
2022-12-03T06:15:11.327Z,72.38
2022-12-03T06:17:38.312Z,71.84
2022-12-03T06:20:05.637Z,71.99
2022-12-03T06:22:32.266Z,72.00
2022-12-03T06:25:03.559Z,72.45
2022-12-03T06:27:33.001Z,72.39
2022-12-03T06:29:59.498Z,72.61
2022-12-03T06:32:25.948Z,72.83
2022-12-03T06:34:52.715Z,72.59
2022-12-03T06:37:19.389Z,72.58
2022-12-03T06:39:45.860Z,72.85
2022-12-03T06:42:12.401Z,73.20
2022-12-03T06:44:38.794Z,72.95
2022-12-03T06:47:05.201Z,72.72
2022-12-03T06:49:31.719Z,72.68
2022-12-03T06:51:58.124Z,72.45
2022-12-03T06:54:24.587Z,72.23
2022-12-03T06:56:51.004Z,72.25
2022-12-03T06:59:17.507Z,72.15
2022-12-03T07:01:44.301Z,72.07
2022-12-03T07:04:10.821Z,71.82
2022-12-03T07:06:37.336Z,72.00
2022-12-03T07:09:03.888Z,71.47
2022-12-03T07:11:33.040Z,71.45
2022-12-03T07:14:05.164Z,71.23
2022-12-03T07:16:31.828Z,71.39
2022-12-03T07:18:58.318Z,71.40
2022-12-03T07:21:24.752Z,71.41
2022-12-03T07:23:51.198Z,71.11
2022-12-03T07:26:17.712Z,71.37
2022-12-03T07:28:44.168Z,71.41
2022-12-03T07:31:10.644Z,71.04
2022-12-03T07:33:37.159Z,71.11
2022-12-03T07:36:03.770Z,71.04
2022-12-03T07:38:30.167Z,71.21
2022-12-03T07:40:56.616Z,71.41
2022-12-03T07:43:24.207Z,71.11
2022-12-03T07:45:50.826Z,71.45
2022-12-03T07:48:17.455Z,71.02
2022-12-03T07:50:44.002Z,71.09
2022-12-03T07:53:10.571Z,71.40
2022-12-03T07:55:37.112Z,71.61
2022-12-03T07:58:03.628Z,70.93
2022-12-03T08:00:30.224Z,71.14
2022-12-03T08:02:56.733Z,70.70
2022-12-03T08:05:23.333Z,70.65
2022-12-03T08:07:49.772Z,70.67
2022-12-03T08:10:16.323Z,70.28
2022-12-03T08:12:42.845Z,70.38
2022-12-03T08:15:21.214Z,71.22
2022-12-03T08:17:53.773Z,71.10
2022-12-03T08:20:28.845Z,70.86
2022-12-03T08:22:59.144Z,70.77
2022-12-03T08:25:29.717Z,71.07
2022-12-03T08:28:19.026Z,70.93
2022-12-03T08:30:55.997Z,70.69
2022-12-03T08:33:28.138Z,70.84
2022-12-03T08:35:55.323Z,70.67
2022-12-03T08:38:24.374Z,70.61
2022-12-03T08:40:52.891Z,70.81
2022-12-03T08:43:21.259Z,70.88
2022-12-03T08:45:49.777Z,70.39
2022-12-03T08:48:19.318Z,70.86
2022-12-03T08:50:46.454Z,70.73
2022-12-03T08:53:29.788Z,71.48
2022-12-03T08:56:02.172Z,71.05
2022-12-03T08:58:36.586Z,70.99
2022-12-03T09:01:24.396Z,70.76
2022-12-03T09:03:55.562Z,70.26
2022-12-03T09:06:22.845Z,69.67
2022-12-03T09:08:49.249Z,69.85
2022-12-03T09:11:15.863Z,69.80
2022-12-03T09:13:42.358Z,69.22
2022-12-03T09:16:08.801Z,69.01
2022-12-03T09:18:35.317Z,68.24
2022-12-03T09:21:01.697Z,68.43
2022-12-03T09:23:28.314Z,67.94
2022-12-03T09:25:54.804Z,67.33
2022-12-03T09:28:21.251Z,67.73
2022-12-03T09:30:47.671Z,67.46
2022-12-03T09:33:14.158Z,67.43
2022-12-03T09:35:40.638Z,67.10
2022-12-03T09:38:07.151Z,67.16
2022-12-03T09:40:34.141Z,67.56
2022-12-03T09:43:00.970Z,67.12
2022-12-03T09:45:27.550Z,66.94
2022-12-03T09:47:55.284Z,66.09
2022-12-03T09:50:26.308Z,66.61
2022-12-03T09:52:55.273Z,65.88
2022-12-03T09:55:28.197Z,66.08
2022-12-03T09:57:56.320Z,65.28
2022-12-03T10:00:29.253Z,65.70
2022-12-03T10:03:02.881Z,65.37
2022-12-03T10:05:29.385Z,65.05
2022-12-03T10:08:04.257Z,64.96
2022-12-03T10:10:30.958Z,63.70
2022-12-03T10:12:57.520Z,63.76
2022-12-03T10:15:24.350Z,64.24
2022-12-03T10:17:54.546Z,63.49
2022-12-03T10:20:22.015Z,65.11
2022-12-03T10:22:49.416Z,63.51
2022-12-03T10:25:18.606Z,62.48
2022-12-03T10:27:57.964Z,63.43
2022-12-03T10:30:28.001Z,62.31
2022-12-03T10:32:57.009Z,62.70
2022-12-03T10:35:26.309Z,62.35
2022-12-03T10:37:57.156Z,62.09
2022-12-03T10:40:35.801Z,62.37
2022-12-03T10:43:14.469Z,62.82
2022-12-03T10:45:42.555Z,61.88
2022-12-03T10:48:20.509Z,62.42
2022-12-03T10:50:55.749Z,62.38
2022-12-03T10:53:27.183Z,61.87
2022-12-03T10:55:59.330Z,61.55
2022-12-03T10:58:28.863Z,61.94
2022-12-03T11:00:57.960Z,62.68
2022-12-03T11:03:27.187Z,62.12
2022-12-03T11:05:55.501Z,61.92
2022-12-03T11:08:27.910Z,62.36
2022-12-03T11:11:00.730Z,62.75
2022-12-03T11:13:34.880Z,62.69
2022-12-03T11:16:03.968Z,62.42
2022-12-03T11:18:36.534Z,62.66
2022-12-03T11:21:05.584Z,62.47
2022-12-03T11:23:44.217Z,63.00
2022-12-03T11:26:19.766Z,63.06
2022-12-03T11:28:46.490Z,62.83
2022-12-03T11:31:35.589Z,63.73
2022-12-03T11:34:20.576Z,63.21
2022-12-03T11:37:11.831Z,63.39
2022-12-03T11:39:59.368Z,63.78
2022-12-03T11:42:25.817Z,63.31
2022-12-03T11:45:04.792Z,63.59
2022-12-03T11:47:42.265Z,63.50
2022-12-03T11:50:17.876Z,64.05
2022-12-03T11:52:47.164Z,63.25
2022-12-03T11:55:25.241Z,63.58
2022-12-03T11:57:58.417Z,64.09
2022-12-03T12:00:25.572Z,63.29
2022-12-03T12:02:53.960Z,63.37
2022-12-03T12:05:33.467Z,63.47
2022-12-03T12:08:02.764Z,64.24
2022-12-03T12:10:38.949Z,64.51
2022-12-03T12:13:05.776Z,63.63
2022-12-03T12:15:38.202Z,64.03
2022-12-03T12:18:33.539Z,64.21
2022-12-03T12:21:37.497Z,64.61
2022-12-03T12:24:40.445Z,64.68
2022-12-03T12:27:27.173Z,64.49
2022-12-03T12:30:01.843Z,64.84
2022-12-03T12:32:31.571Z,64.90
2022-12-03T12:35:22.434Z,65.40
2022-12-03T12:38:00.157Z,64.67
2022-12-03T12:40:32.805Z,64.28
2022-12-03T12:43:11.577Z,64.20
2022-12-03T12:45:43.017Z,64.27
2022-12-03T12:48:15.172Z,64.36
2022-12-03T12:50:44.298Z,64.25
2022-12-03T12:53:10.687Z,64.50
2022-12-03T12:55:38.897Z,64.32
2022-12-03T12:58:15.448Z,65.11
2022-12-03T13:00:42.116Z,64.48
2022-12-03T13:03:10.722Z,64.19
2022-12-03T13:05:45.755Z,64.77
2022-12-03T13:08:27.793Z,64.58
2022-12-03T13:10:56.626Z,64.68
2022-12-03T13:13:44.034Z,64.89
2022-12-03T13:16:26.499Z,65.01
2022-12-03T13:18:55.460Z,64.50
2022-12-03T13:21:43.421Z,64.72
2022-12-03T13:24:30.389Z,65.22
2022-12-03T13:26:57.466Z,64.30
2022-12-03T13:29:25.616Z,64.36
2022-12-03T13:32:11.912Z,64.58
2022-12-03T13:34:38.523Z,64.07
2022-12-03T13:37:13.781Z,64.69
2022-12-03T13:39:46.387Z,64.65
2022-12-03T13:42:37.566Z,64.80
2022-12-03T13:45:24.791Z,65.40
2022-12-03T13:48:03.611Z,65.79
2022-12-03T13:50:41.007Z,65.41
2022-12-03T13:53:33.175Z,65.63
2022-12-03T13:56:31.765Z,65.84
2022-12-03T13:59:00.300Z,65.37
2022-12-03T14:01:27.662Z,65.25
2022-12-03T14:03:56.659Z,65.29
2022-12-03T14:06:23.153Z,65.35
2022-12-03T14:08:49.690Z,65.67
2022-12-03T14:11:34.658Z,65.57
2022-12-03T14:14:01.256Z,66.06
2022-12-03T14:16:27.817Z,66.13
2022-12-03T14:18:54.537Z,66.44
2022-12-03T14:21:20.960Z,65.94
2022-12-03T14:23:47.556Z,66.42
2022-12-03T14:26:14.007Z,66.29
2022-12-03T14:28:40.592Z,66.07
2022-12-03T14:31:07.039Z,65.78
2022-12-03T14:33:33.741Z,66.07
2022-12-03T14:36:00.458Z,65.93
2022-12-03T14:38:26.997Z,66.29
2022-12-03T14:40:53.476Z,66.05
2022-12-03T14:43:19.881Z,66.19
2022-12-03T14:45:46.431Z,66.17
2022-12-03T14:48:12.881Z,66.45
2022-12-03T14:50:39.432Z,66.38
2022-12-03T14:53:05.863Z,66.40
2022-12-03T14:55:32.376Z,66.75
2022-12-03T14:57:58.768Z,67.00
2022-12-03T15:00:25.674Z,67.29
2022-12-03T15:02:52.224Z,67.13
2022-12-03T15:05:26.459Z,67.45
2022-12-03T15:07:54.936Z,67.69
2022-12-03T15:10:21.404Z,67.77
2022-12-03T15:12:47.889Z,68.25
2022-12-03T15:15:14.373Z,68.22
2022-12-03T15:17:41.754Z,68.47
2022-12-03T15:20:08.798Z,68.51
2022-12-03T15:22:35.268Z,68.21
2022-12-03T15:25:03.333Z,68.36
2022-12-03T15:27:29.822Z,68.13
2022-12-03T15:29:56.469Z,68.24
2022-12-03T15:32:23.054Z,68.28
2022-12-03T15:34:51.296Z,68.55
2022-12-03T15:37:17.818Z,68.36
2022-12-03T15:39:48.324Z,68.63
2022-12-03T15:42:15.349Z,68.35
2022-12-03T15:44:41.770Z,68.51
2022-12-03T15:47:08.189Z,68.94
2022-12-03T15:49:34.590Z,69.02
2022-12-03T15:52:01.085Z,68.87
2022-12-03T15:54:27.499Z,69.21
2022-12-03T15:56:57.236Z,69.20
2022-12-03T15:59:26.465Z,69.41
2022-12-03T16:01:52.903Z,68.93
2022-12-03T16:04:19.400Z,69.22
2022-12-03T16:06:45.840Z,69.09
2022-12-03T16:09:12.236Z,69.35
2022-12-03T16:11:38.794Z,69.38
2022-12-03T16:14:05.188Z,69.34
2022-12-03T16:16:31.670Z,69.11
2022-12-03T16:18:58.221Z,69.25
2022-12-03T16:21:26.993Z,69.08
2022-12-03T16:23:54.308Z,69.23
2022-12-03T16:26:21.191Z,69.29
2022-12-03T16:28:47.795Z,69.15
2022-12-03T16:31:14.446Z,69.08
2022-12-03T16:33:40.864Z,69.33
2022-12-03T16:36:07.580Z,69.69
2022-12-03T16:38:34.045Z,70.20
2022-12-03T16:41:01.302Z,70.20
2022-12-03T16:43:28.119Z,70.20
2022-12-03T16:46:14.635Z,70.18
2022-12-03T16:48:41.696Z,70.79
2022-12-03T16:51:08.291Z,70.64
2022-12-03T16:53:34.865Z,70.87
2022-12-03T16:56:02.264Z,71.26
2022-12-03T16:58:28.813Z,70.97
2022-12-03T17:00:55.509Z,71.11
2022-12-03T17:03:22.787Z,71.44
2022-12-03T17:05:49.524Z,71.25
2022-12-03T17:08:16.386Z,71.26
2022-12-03T17:10:43.972Z,70.75
2022-12-03T17:13:13.336Z,71.00
2022-12-03T17:15:40.998Z,70.90
2022-12-03T17:18:08.516Z,71.17
2022-12-03T17:20:35.585Z,70.71
2022-12-03T17:23:02.191Z,70.79
2022-12-03T17:25:28.992Z,70.77
2022-12-03T17:27:55.815Z,70.87
2022-12-03T17:30:22.383Z,70.38
2022-12-03T17:32:50.349Z,70.59
2022-12-03T17:35:17.393Z,70.73
2022-12-03T17:37:43.846Z,70.80
2022-12-03T17:40:14.316Z,70.91
2022-12-03T17:42:40.788Z,70.64
2022-12-03T17:45:07.968Z,70.93
2022-12-03T17:47:34.362Z,70.98
2022-12-03T17:50:00.773Z,71.06
2022-12-03T17:52:27.182Z,71.13
2022-12-03T17:55:10.958Z,70.90
2022-12-03T17:57:39.653Z,71.17
2022-12-03T18:00:06.857Z,71.37
2022-12-03T18:02:33.257Z,71.56
2022-12-03T18:04:59.687Z,71.61
2022-12-03T18:07:26.180Z,71.65
2022-12-03T18:09:53.359Z,71.39
2022-12-03T18:12:19.948Z,71.15
2022-12-03T18:14:46.365Z,71.33
2022-12-03T18:17:13.781Z,71.14
2022-12-03T18:19:40.426Z,70.97
2022-12-03T18:22:07.030Z,70.89
2022-12-03T18:24:33.501Z,70.39
2022-12-03T18:26:59.999Z,70.59
2022-12-03T18:29:26.657Z,70.28
2022-12-03T18:31:53.166Z,70.42
2022-12-03T18:34:19.703Z,70.23
2022-12-03T18:36:46.545Z,70.04
2022-12-03T18:39:25.552Z,70.56
2022-12-03T18:41:53.137Z,69.75
2022-12-03T18:44:19.677Z,69.83
2022-12-03T18:46:53.327Z,69.73
2022-12-03T18:49:20.944Z,69.29
2022-12-03T18:51:48.458Z,69.22
2022-12-03T18:54:15.426Z,68.67
2022-12-03T18:56:41.984Z,68.54
2022-12-03T18:59:09.418Z,68.84
2022-12-03T19:01:36.299Z,68.77
2022-12-03T19:04:03.776Z,68.62
2022-12-03T19:06:30.551Z,68.47
2022-12-03T19:08:57.960Z,68.66
2022-12-03T19:11:24.618Z,68.68
2022-12-03T19:13:51.885Z,68.54
2022-12-03T19:16:18.625Z,68.47
2022-12-03T19:18:45.801Z,68.04
2022-12-03T19:21:15.339Z,68.62
2022-12-03T19:23:58.883Z,68.37
2022-12-03T19:26:29.622Z,68.70
2022-12-03T19:28:56.355Z,68.92
2022-12-03T19:31:22.905Z,69.12
2022-12-03T19:33:50.671Z,69.34
2022-12-03T19:36:26.692Z,69.50
2022-12-03T19:38:57.389Z,68.97
2022-12-03T19:41:27.189Z,69.08
2022-12-03T19:43:55.317Z,68.67
2022-12-03T19:46:24.066Z,68.68
2022-12-03T19:48:51.373Z,68.19
2022-12-03T19:51:34.175Z,68.26
2022-12-03T19:54:02.421Z,68.37
2022-12-03T19:56:30.372Z,68.13
2022-12-03T19:58:57.722Z,68.02
2022-12-03T20:01:27.101Z,67.67
2022-12-03T20:03:57.678Z,67.82
2022-12-03T20:06:27.225Z,67.63
2022-12-03T20:08:58.483Z,68.30
2022-12-03T20:11:31.398Z,67.86
2022-12-03T20:14:00.101Z,67.74
2022-12-03T20:16:27.703Z,68.05
2022-12-03T20:19:00.192Z,68.06
2022-12-03T20:21:28.675Z,67.47
2022-12-03T20:23:55.661Z,67.45
2022-12-03T20:26:23.103Z,67.46
2022-12-03T20:28:50.095Z,67.46
2022-12-03T20:31:18.843Z,67.49
2022-12-03T20:33:48.437Z,67.56
2022-12-03T20:36:17.887Z,67.33
2022-12-03T20:38:44.928Z,67.29
2022-12-03T20:41:14.438Z,66.59
2022-12-03T20:43:40.966Z,66.61
2022-12-03T20:46:17.743Z,67.05
2022-12-03T20:48:45.325Z,66.44
2022-12-03T20:51:20.694Z,66.75
2022-12-03T20:53:47.546Z,66.01
2022-12-03T20:56:25.930Z,66.97
2022-12-03T20:58:53.659Z,66.62
2022-12-03T21:01:27.825Z,67.32
2022-12-03T21:03:56.459Z,67.00
2022-12-03T21:06:25.425Z,66.74
2022-12-03T21:08:57.041Z,67.29
2022-12-03T21:11:25.942Z,66.58
2022-12-03T21:13:54.528Z,67.08
2022-12-03T21:16:51.921Z,66.72
2022-12-03T21:19:11.976Z,66.86
2022-12-03T21:21:38.370Z,66.64
2022-12-03T21:24:05.003Z,66.90
2022-12-03T21:26:31.569Z,67.22
2022-12-03T21:28:58.083Z,66.73
2022-12-03T21:31:26.630Z,66.85
2022-12-03T21:33:54.475Z,66.91
2022-12-03T21:36:21.005Z,66.61
2022-12-03T21:38:48.160Z,66.87
2022-12-03T21:41:15.134Z,66.65
2022-12-03T21:43:42.468Z,66.60
2022-12-03T21:47:10.568Z,66.73
2022-12-03T21:48:59.779Z,66.35
2022-12-03T21:51:26.217Z,66.16
2022-12-03T21:53:53.245Z,66.23
2022-12-03T21:56:20.225Z,66.44
2022-12-03T21:58:47.334Z,66.44
2022-12-03T22:01:20.494Z,67.07
2022-12-03T22:03:47.906Z,66.13
2022-12-03T22:06:15.272Z,66.15
2022-12-03T22:08:42.084Z,66.16
2022-12-03T22:11:14.335Z,66.69
2022-12-03T22:13:41.827Z,66.25
2022-12-03T22:16:11.110Z,66.57
2022-12-03T22:18:38.270Z,66.55
2022-12-03T22:21:13.783Z,66.61
2022-12-03T22:23:40.914Z,66.77
2022-12-03T22:26:10.464Z,66.17
2022-12-03T22:28:37.214Z,66.34
2022-12-03T22:31:07.963Z,66.98
2022-12-03T22:33:35.679Z,66.96
2022-12-03T22:36:06.413Z,66.65
2022-12-03T22:38:33.091Z,67.34
2022-12-03T22:41:00.193Z,67.36
2022-12-03T22:43:26.922Z,67.73
2022-12-03T22:45:56.543Z,67.92
2022-12-03T22:48:24.492Z,67.68
2022-12-03T22:50:52.518Z,68.00
2022-12-03T22:53:19.916Z,68.37
2022-12-03T22:55:57.702Z,68.13
2022-12-03T22:58:28.019Z,67.78
2022-12-03T23:01:01.281Z,68.10
2022-12-03T23:03:29.267Z,67.91
2022-12-03T23:05:55.768Z,67.88
2022-12-03T23:08:23.462Z,67.66
2022-12-03T23:10:52.491Z,68.14
2022-12-03T23:13:20.284Z,67.66
2022-12-03T23:15:49.337Z,67.60
2022-12-03T23:18:16.514Z,67.47
2022-12-03T23:20:52.286Z,68.53
2022-12-03T23:23:20.936Z,68.11
2022-12-03T23:26:05.256Z,68.98
2022-12-03T23:28:33.363Z,68.46
2022-12-03T23:31:00.221Z,67.99
2022-12-03T23:33:27.274Z,68.60
2022-12-03T23:35:53.721Z,68.67
2022-12-03T23:38:20.403Z,68.89
2022-12-03T23:40:48.419Z,69.01
2022-12-03T23:43:15.565Z,68.87
2022-12-03T23:45:42.050Z,68.36
2022-12-03T23:48:08.654Z,68.78
2022-12-03T23:50:38.145Z,68.85
2022-12-03T23:53:04.690Z,68.78
2022-12-03T23:55:31.154Z,69.04
2022-12-03T23:57:57.625Z,69.05
